Terminal Aerodrome Forecast
Issued by NWS

Home | Current Version | Previous Version | Text Only | Print | Product List | Glossary On
Versions: 1 2 3 4 5 6 7 8 9 10 11 12 13 14 15
000
FTUS44 KLIX 040550
TAFHUM
TAF
KHUM 040550Z 0406/0506 08009KT P6SM -RA OVC006
     FM040900 15007KT 4SM -SHRA BR OVC008
      TEMPO 0410/0413 2SM TSRA OVC005CB
     FM041300 16005KT 3SM -RA OVC007
     FM041500 17007KT 3SM SHRA OVC015
     FM042300 34007KT 5SM SHRA OVC020
     FM050100 02007KT 5SM SHRA OVC008=

USA.gov is the U.S. government's official web portal to all federal, state and local government web resources and services.